sensor_id;sensor_type;location;lat;lon;timestamp;P1;durP1;ratioP1;P2;durP2;ratioP2
6850;SDS011;3464;42.728;23.296;2024-02-26T00:00:41;56.80;;;33.30;;
6850;SDS011;3464;42.728;23.296;2024-02-26T00:03:30;54.83;;;33.17;;
6850;SDS011;3464;42.728;23.296;2024-02-26T00:06:19;56.77;;;31.90;;
6850;SDS011;3464;42.728;23.296;2024-02-26T00:09:08;55.17;;;31.77;;
6850;SDS011;3464;42.728;23.296;2024-02-26T00:11:57;56.00;;;31.73;;
6850;SDS011;3464;42.728;23.296;2024-02-26T00:14:47;53.50;;;30.80;;
6850;SDS011;3464;42.728;23.296;2024-02-26T00:17:37;50.60;;;30.97;;
6850;SDS011;3464;42.728;23.296;2024-02-26T00:20:26;54.90;;;31.10;;
6850;SDS011;3464;42.728;23.296;2024-02-26T00:23:16;53.03;;;31.80;;
6850;SDS011;3464;42.728;23.296;2024-02-26T00:26:06;47.40;;;29.50;;
6850;SDS011;3464;42.728;23.296;2024-02-26T00:28:55;50.80;;;29.13;;
6850;SDS011;3464;42.728;23.296;2024-02-26T00:31:45;49.60;;;30.13;;
6850;SDS011;3464;42.728;23.296;2024-02-26T00:34:35;49.80;;;29.60;;
6850;SDS011;3464;42.728;23.296;2024-02-26T00:37:25;62.70;;;32.00;;
6850;SDS011;3464;42.728;23.296;2024-02-26T00:40:15;50.47;;;29.90;;
6850;SDS011;3464;42.728;23.296;2024-02-26T00:43:05;45.97;;;27.83;;
6850;SDS011;3464;42.728;23.296;2024-02-26T00:45:54;52.33;;;29.60;;
6850;SDS011;3464;42.728;23.296;2024-02-26T00:48:44;49.90;;;29.33;;
6850;SDS011;3464;42.728;23.296;2024-02-26T00:51:33;57.10;;;30.83;;
6850;SDS011;3464;42.728;23.296;2024-02-26T00:54:23;49.77;;;29.07;;
6850;SDS011;3464;42.728;23.296;2024-02-26T00:57:12;50.57;;;30.30;;
6850;SDS011;3464;42.728;23.296;2024-02-26T01:00:04;44.10;;;27.20;;
6850;SDS011;3464;42.728;23.296;2024-02-26T01:02:53;51.77;;;28.80;;
6850;SDS011;3464;42.728;23.296;2024-02-26T01:05:44;49.47;;;29.57;;
6850;SDS011;3464;42.728;23.296;2024-02-26T01:08:33;48.97;;;29.00;;
6850;SDS011;3464;42.728;23.296;2024-02-26T01:11:23;46.60;;;29.60;;
6850;SDS011;3464;42.728;23.296;2024-02-26T01:14:12;56.53;;;31.37;;
6850;SDS011;3464;42.728;23.296;2024-02-26T01:17:02;53.17;;;31.33;;
6850;SDS011;3464;42.728;23.296;2024-02-26T01:19:52;49.13;;;29.80;;
6850;SDS011;3464;42.728;23.296;2024-02-26T01:22:42;48.33;;;28.60;;
6850;SDS011;3464;42.728;23.296;2024-02-26T01:25:31;48.90;;;28.87;;
6850;SDS011;3464;42.728;23.296;2024-02-26T01:28:21;48.13;;;28.37;;
6850;SDS011;3464;42.728;23.296;2024-02-26T01:31:10;46.57;;;27.00;;
6850;SDS011;3464;42.728;23.296;2024-02-26T01:34:00;49.10;;;28.10;;
6850;SDS011;3464;42.728;23.296;2024-02-26T01:36:51;47.47;;;26.63;;
6850;SDS011;3464;42.728;23.296;2024-02-26T01:39:40;48.07;;;27.50;;
6850;SDS011;3464;42.728;23.296;2024-02-26T01:42:31;45.33;;;27.40;;
6850;SDS011;3464;42.728;23.296;2024-02-26T01:45:21;48.10;;;27.73;;
6850;SDS011;3464;42.728;23.296;2024-02-26T01:48:11;48.73;;;28.70;;
6850;SDS011;3464;42.728;23.296;2024-02-26T01:51:00;52.17;;;28.90;;
6850;SDS011;3464;42.728;23.296;2024-02-26T01:53:50;63.30;;;28.03;;
6850;SDS011;3464;42.728;23.296;2024-02-26T01:56:40;48.03;;;28.37;;
6850;SDS011;3464;42.728;23.296;2024-02-26T01:59:31;54.50;;;29.40;;
6850;SDS011;3464;42.728;23.296;2024-02-26T02:02:20;52.57;;;28.27;;
6850;SDS011;3464;42.728;23.296;2024-02-26T02:05:10;52.93;;;30.73;;
6850;SDS011;3464;42.728;23.296;2024-02-26T02:07:59;60.47;;;30.50;;
6850;SDS011;3464;42.728;23.296;2024-02-26T02:10:52;50.37;;;30.20;;
6850;SDS011;3464;42.728;23.296;2024-02-26T02:13:46;53.00;;;29.70;;
6850;SDS011;3464;42.728;23.296;2024-02-26T02:16:36;50.70;;;29.47;;
6850;SDS011;3464;42.728;23.296;2024-02-26T02:19:24;52.30;;;30.00;;
6850;SDS011;3464;42.728;23.296;2024-02-26T02:22:14;45.87;;;28.07;;
6850;SDS011;3464;42.728;23.296;2024-02-26T02:25:04;51.60;;;27.23;;
6850;SDS011;3464;42.728;23.296;2024-02-26T02:27:54;45.77;;;28.20;;
6850;SDS011;3464;42.728;23.296;2024-02-26T02:30:43;47.43;;;27.33;;
6850;SDS011;3464;42.728;23.296;2024-02-26T02:33:33;47.53;;;27.30;;
6850;SDS011;3464;42.728;23.296;2024-02-26T02:36:23;47.27;;;27.70;;
6850;SDS011;3464;42.728;23.296;2024-02-26T02:39:13;48.80;;;27.00;;
6850;SDS011;3464;42.728;23.296;2024-02-26T02:42:03;46.43;;;27.00;;
6850;SDS011;3464;42.728;23.296;2024-02-26T02:44:52;45.07;;;28.20;;
6850;SDS011;3464;42.728;23.296;2024-02-26T02:47:42;47.10;;;27.40;;
6850;SDS011;3464;42.728;23.296;2024-02-26T02:50:32;42.30;;;26.30;;
6850;SDS011;3464;42.728;23.296;2024-02-26T02:53:20;43.33;;;26.43;;
6850;SDS011;3464;42.728;23.296;2024-02-26T02:56:10;43.83;;;26.57;;
6850;SDS011;3464;42.728;23.296;2024-02-26T02:59:00;46.70;;;26.33;;
6850;SDS011;3464;42.728;23.296;2024-02-26T03:01:50;47.73;;;27.03;;
6850;SDS011;3464;42.728;23.296;2024-02-26T03:04:40;42.03;;;26.53;;
6850;SDS011;3464;42.728;23.296;2024-02-26T03:07:28;45.07;;;27.10;;
6850;SDS011;3464;42.728;23.296;2024-02-26T03:10:18;46.80;;;26.27;;
6850;SDS011;3464;42.728;23.296;2024-02-26T03:13:08;43.90;;;26.27;;
6850;SDS011;3464;42.728;23.296;2024-02-26T03:15:57;46.60;;;27.33;;
6850;SDS011;3464;42.728;23.296;2024-02-26T03:18:47;44.50;;;25.93;;
6850;SDS011;3464;42.728;23.296;2024-02-26T03:21:37;46.73;;;27.30;;
6850;SDS011;3464;42.728;23.296;2024-02-26T03:24:27;43.97;;;26.70;;
6850;SDS011;3464;42.728;23.296;2024-02-26T03:27:16;46.70;;;24.83;;
6850;SDS011;3464;42.728;23.296;2024-02-26T03:30:06;44.00;;;26.10;;
6850;SDS011;3464;42.728;23.296;2024-02-26T03:32:56;42.93;;;26.13;;
6850;SDS011;3464;42.728;23.296;2024-02-26T03:35:45;46.00;;;28.23;;
6850;SDS011;3464;42.728;23.296;2024-02-26T03:38:35;44.17;;;26.97;;
6850;SDS011;3464;42.728;23.296;2024-02-26T03:41:25;43.27;;;26.77;;
6850;SDS011;3464;42.728;23.296;2024-02-26T03:44:14;48.77;;;26.90;;
6850;SDS011;3464;42.728;23.296;2024-02-26T03:47:03;41.20;;;25.70;;
6850;SDS011;3464;42.728;23.296;2024-02-26T03:49:53;45.70;;;27.07;;
6850;SDS011;3464;42.728;23.296;2024-02-26T03:52:43;48.83;;;27.57;;
6850;SDS011;3464;42.728;23.296;2024-02-26T03:55:32;57.03;;;28.93;;
6850;SDS011;3464;42.728;23.296;2024-02-26T03:58:21;42.73;;;26.43;;
6850;SDS011;3464;42.728;23.296;2024-02-26T04:01:11;49.20;;;27.27;;
6850;SDS011;3464;42.728;23.296;2024-02-26T04:04:00;50.03;;;25.73;;
6850;SDS011;3464;42.728;23.296;2024-02-26T04:06:50;39.83;;;23.83;;
6850;SDS011;3464;42.728;23.296;2024-02-26T04:09:39;42.40;;;25.10;;
6850;SDS011;3464;42.728;23.296;2024-02-26T04:12:29;40.53;;;24.97;;
6850;SDS011;3464;42.728;23.296;2024-02-26T04:15:19;42.77;;;25.93;;
6850;SDS011;3464;42.728;23.296;2024-02-26T04:18:09;45.57;;;26.00;;
6850;SDS011;3464;42.728;23.296;2024-02-26T04:20:59;41.07;;;24.70;;
6850;SDS011;3464;42.728;23.296;2024-02-26T04:23:48;39.43;;;24.50;;
6850;SDS011;3464;42.728;23.296;2024-02-26T04:26:38;40.67;;;24.93;;
6850;SDS011;3464;42.728;23.296;2024-02-26T04:29:28;40.93;;;22.50;;
6850;SDS011;3464;42.728;23.296;2024-02-26T04:32:17;41.10;;;24.40;;
6850;SDS011;3464;42.728;23.296;2024-02-26T04:35:07;45.37;;;23.53;;
6850;SDS011;3464;42.728;23.296;2024-02-26T04:37:58;48.37;;;25.13;;
6850;SDS011;3464;42.728;23.296;2024-02-26T04:40:47;47.67;;;27.50;;
6850;SDS011;3464;42.728;23.296;2024-02-26T04:43:37;43.87;;;26.67;;
6850;SDS011;3464;42.728;23.296;2024-02-26T04:46:27;43.20;;;25.60;;
6850;SDS011;3464;42.728;23.296;2024-02-26T04:49:16;55.27;;;29.20;;
6850;SDS011;3464;42.728;23.296;2024-02-26T04:52:06;47.47;;;26.67;;
6850;SDS011;3464;42.728;23.296;2024-02-26T04:54:56;44.30;;;24.10;;
6850;SDS011;3464;42.728;23.296;2024-02-26T04:57:45;48.40;;;25.57;;
6850;SDS011;3464;42.728;23.296;2024-02-26T05:00:35;53.87;;;25.07;;
6850;SDS011;3464;42.728;23.296;2024-02-26T05:03:24;39.83;;;23.27;;
6850;SDS011;3464;42.728;23.296;2024-02-26T05:06:13;44.87;;;22.77;;
6850;SDS011;3464;42.728;23.296;2024-02-26T05:09:03;40.20;;;22.87;;
6850;SDS011;3464;42.728;23.296;2024-02-26T05:11:52;45.30;;;24.03;;
6850;SDS011;3464;42.728;23.296;2024-02-26T05:14:43;45.20;;;23.90;;
6850;SDS011;3464;42.728;23.296;2024-02-26T05:17:32;42.40;;;23.33;;
6850;SDS011;3464;42.728;23.296;2024-02-26T05:20:22;40.17;;;22.23;;
6850;SDS011;3464;42.728;23.296;2024-02-26T05:23:11;38.60;;;22.67;;
6850;SDS011;3464;42.728;23.296;2024-02-26T05:26:01;35.27;;;21.53;;
6850;SDS011;3464;42.728;23.296;2024-02-26T05:28:52;40.77;;;22.23;;
6850;SDS011;3464;42.728;23.296;2024-02-26T05:31:42;43.23;;;22.67;;
6850;SDS011;3464;42.728;23.296;2024-02-26T05:34:31;42.37;;;21.93;;
6850;SDS011;3464;42.728;23.296;2024-02-26T05:37:20;36.33;;;21.77;;
6850;SDS011;3464;42.728;23.296;2024-02-26T05:40:10;40.70;;;21.37;;
6850;SDS011;3464;42.728;23.296;2024-02-26T05:43:00;40.77;;;22.03;;
6850;SDS011;3464;42.728;23.296;2024-02-26T05:45:50;47.83;;;24.37;;
6850;SDS011;3464;42.728;23.296;2024-02-26T05:48:39;51.70;;;28.20;;
6850;SDS011;3464;42.728;23.296;2024-02-26T05:51:29;61.83;;;33.00;;
6850;SDS011;3464;42.728;23.296;2024-02-26T05:54:19;90.07;;;46.07;;
6850;SDS011;3464;42.728;23.296;2024-02-26T05:57:08;102.17;;;49.50;;
6850;SDS011;3464;42.728;23.296;2024-02-26T05:59:58;97.57;;;48.33;;
6850;SDS011;3464;42.728;23.296;2024-02-26T06:02:47;89.40;;;46.80;;
6850;SDS011;3464;42.728;23.296;2024-02-26T06:05:36;115.23;;;54.23;;
6850;SDS011;3464;42.728;23.296;2024-02-26T06:08:26;120.33;;;55.20;;
6850;SDS011;3464;42.728;23.296;2024-02-26T06:11:15;110.00;;;54.80;;
6850;SDS011;3464;42.728;23.296;2024-02-26T06:14:03;122.37;;;59.70;;
6850;SDS011;3464;42.728;23.296;2024-02-26T06:16:52;115.03;;;58.30;;
6850;SDS011;3464;42.728;23.296;2024-02-26T06:19:41;122.70;;;59.27;;
6850;SDS011;3464;42.728;23.296;2024-02-26T06:22:31;106.67;;;55.37;;
6850;SDS011;3464;42.728;23.296;2024-02-26T06:25:20;109.90;;;50.47;;
6850;SDS011;3464;42.728;23.296;2024-02-26T06:28:09;95.27;;;48.50;;
6850;SDS011;3464;42.728;23.296;2024-02-26T06:30:58;88.50;;;43.10;;
6850;SDS011;3464;42.728;23.296;2024-02-26T06:33:48;77.00;;;37.63;;
6850;SDS011;3464;42.728;23.296;2024-02-26T06:36:37;57.30;;;32.53;;
6850;SDS011;3464;42.728;23.296;2024-02-26T06:39:28;58.90;;;29.47;;
6850;SDS011;3464;42.728;23.296;2024-02-26T06:42:18;58.90;;;30.17;;
6850;SDS011;3464;42.728;23.296;2024-02-26T06:45:10;47.60;;;26.20;;
6850;SDS011;3464;42.728;23.296;2024-02-26T06:48:03;43.73;;;25.27;;
6850;SDS011;3464;42.728;23.296;2024-02-26T06:50:53;42.20;;;24.43;;
6850;SDS011;3464;42.728;23.296;2024-02-26T06:53:43;40.70;;;24.47;;
6850;SDS011;3464;42.728;23.296;2024-02-26T06:56:32;46.90;;;25.30;;
6850;SDS011;3464;42.728;23.296;2024-02-26T06:59:21;44.07;;;24.20;;
6850;SDS011;3464;42.728;23.296;2024-02-26T07:02:11;45.33;;;24.63;;
6850;SDS011;3464;42.728;23.296;2024-02-26T07:04:59;38.83;;;24.23;;
6850;SDS011;3464;42.728;23.296;2024-02-26T07:07:49;45.87;;;25.60;;
6850;SDS011;3464;42.728;23.296;2024-02-26T07:10:38;51.00;;;28.40;;
6850;SDS011;3464;42.728;23.296;2024-02-26T07:13:28;49.13;;;28.50;;
6850;SDS011;3464;42.728;23.296;2024-02-26T07:16:19;53.13;;;29.20;;
6850;SDS011;3464;42.728;23.296;2024-02-26T07:19:09;57.43;;;30.20;;
6850;SDS011;3464;42.728;23.296;2024-02-26T07:21:58;50.70;;;30.60;;
6850;SDS011;3464;42.728;23.296;2024-02-26T07:24:48;59.27;;;32.60;;
6850;SDS011;3464;42.728;23.296;2024-02-26T07:27:37;72.77;;;40.23;;
6850;SDS011;3464;42.728;23.296;2024-02-26T07:30:27;74.00;;;42.50;;
6850;SDS011;3464;42.728;23.296;2024-02-26T07:33:16;66.53;;;38.47;;
6850;SDS011;3464;42.728;23.296;2024-02-26T07:36:06;49.67;;;31.90;;
6850;SDS011;3464;42.728;23.296;2024-02-26T07:38:56;57.27;;;30.50;;
6850;SDS011;3464;42.728;23.296;2024-02-26T07:41:46;55.60;;;29.47;;
6850;SDS011;3464;42.728;23.296;2024-02-26T07:44:34;50.00;;;26.17;;
6850;SDS011;3464;42.728;23.296;2024-02-26T07:47:24;45.70;;;25.40;;
6850;SDS011;3464;42.728;23.296;2024-02-26T07:50:14;46.10;;;26.30;;
6850;SDS011;3464;42.728;23.296;2024-02-26T07:53:03;49.87;;;25.97;;
6850;SDS011;3464;42.728;23.296;2024-02-26T07:55:53;44.93;;;24.33;;
6850;SDS011;3464;42.728;23.296;2024-02-26T07:58:43;45.70;;;23.37;;
6850;SDS011;3464;42.728;23.296;2024-02-26T08:01:32;49.27;;;23.40;;
6850;SDS011;3464;42.728;23.296;2024-02-26T08:04:21;48.73;;;26.30;;
6850;SDS011;3464;42.728;23.296;2024-02-26T08:07:10;48.63;;;24.90;;
6850;SDS011;3464;42.728;23.296;2024-02-26T08:09:59;42.63;;;23.07;;
6850;SDS011;3464;42.728;23.296;2024-02-26T08:12:48;47.00;;;23.17;;
6850;SDS011;3464;42.728;23.296;2024-02-26T08:15:38;42.07;;;23.70;;
6850;SDS011;3464;42.728;23.296;2024-02-26T08:18:27;39.73;;;23.20;;
6850;SDS011;3464;42.728;23.296;2024-02-26T08:21:17;43.00;;;25.20;;
6850;SDS011;3464;42.728;23.296;2024-02-26T08:24:06;42.67;;;23.70;;
6850;SDS011;3464;42.728;23.296;2024-02-26T08:26:55;44.07;;;23.17;;
6850;SDS011;3464;42.728;23.296;2024-02-26T08:29:44;46.40;;;23.40;;
6850;SDS011;3464;42.728;23.296;2024-02-26T08:32:34;44.70;;;22.87;;
6850;SDS011;3464;42.728;23.296;2024-02-26T08:35:24;43.13;;;22.40;;
6850;SDS011;3464;42.728;23.296;2024-02-26T08:38:13;39.80;;;22.67;;
6850;SDS011;3464;42.728;23.296;2024-02-26T08:41:02;45.70;;;24.00;;
6850;SDS011;3464;42.728;23.296;2024-02-26T08:43:51;43.53;;;22.40;;
6850;SDS011;3464;42.728;23.296;2024-02-26T08:46:39;40.70;;;23.40;;
6850;SDS011;3464;42.728;23.296;2024-02-26T08:49:29;50.10;;;25.27;;
6850;SDS011;3464;42.728;23.296;2024-02-26T08:52:18;50.03;;;24.43;;
6850;SDS011;3464;42.728;23.296;2024-02-26T08:55:07;46.53;;;23.90;;
6850;SDS011;3464;42.728;23.296;2024-02-26T08:57:57;43.60;;;24.27;;
6850;SDS011;3464;42.728;23.296;2024-02-26T09:00:47;40.00;;;22.60;;
6850;SDS011;3464;42.728;23.296;2024-02-26T09:03:36;39.27;;;23.63;;
6850;SDS011;3464;42.728;23.296;2024-02-26T09:06:26;46.23;;;23.90;;
6850;SDS011;3464;42.728;23.296;2024-02-26T09:09:15;37.97;;;23.17;;
6850;SDS011;3464;42.728;23.296;2024-02-26T09:12:05;37.43;;;21.63;;
6850;SDS011;3464;42.728;23.296;2024-02-26T09:14:54;43.00;;;23.20;;
6850;SDS011;3464;42.728;23.296;2024-02-26T09:17:44;40.93;;;20.30;;
6850;SDS011;3464;42.728;23.296;2024-02-26T09:20:33;39.30;;;22.07;;
6850;SDS011;3464;42.728;23.296;2024-02-26T09:23:23;44.63;;;21.37;;
6850;SDS011;3464;42.728;23.296;2024-02-26T09:26:14;36.60;;;18.90;;
6850;SDS011;3464;42.728;23.296;2024-02-26T09:29:05;37.40;;;18.80;;
6850;SDS011;3464;42.728;23.296;2024-02-26T09:31:56;31.60;;;18.00;;
6850;SDS011;3464;42.728;23.296;2024-02-26T09:34:46;33.37;;;15.53;;
6850;SDS011;3464;42.728;23.296;2024-02-26T09:37:35;28.60;;;14.83;;
6850;SDS011;3464;42.728;23.296;2024-02-26T09:40:25;35.50;;;15.10;;
6850;SDS011;3464;42.728;23.296;2024-02-26T09:43:16;30.13;;;14.17;;
6850;SDS011;3464;42.728;23.296;2024-02-26T09:46:12;29.63;;;13.83;;
6850;SDS011;3464;42.728;23.296;2024-02-26T09:49:01;29.23;;;13.77;;
6850;SDS011;3464;42.728;23.296;2024-02-26T09:51:50;29.73;;;14.40;;
6850;SDS011;3464;42.728;23.296;2024-02-26T09:54:41;30.77;;;13.90;;
6850;SDS011;3464;42.728;23.296;2024-02-26T09:57:31;25.20;;;9.80;;
6850;SDS011;3464;42.728;23.296;2024-02-26T10:00:21;24.10;;;8.80;;
6850;SDS011;3464;42.728;23.296;2024-02-26T10:03:11;18.60;;;8.40;;
6850;SDS011;3464;42.728;23.296;2024-02-26T10:06:00;16.67;;;8.00;;
6850;SDS011;3464;42.728;23.296;2024-02-26T10:08:50;19.20;;;8.17;;
6850;SDS011;3464;42.728;23.296;2024-02-26T10:11:39;20.07;;;8.00;;
6850;SDS011;3464;42.728;23.296;2024-02-26T10:14:28;20.83;;;7.73;;
6850;SDS011;3464;42.728;23.296;2024-02-26T10:17:18;24.07;;;6.83;;
6850;SDS011;3464;42.728;23.296;2024-02-26T10:20:11;19.63;;;7.80;;
6850;SDS011;3464;42.728;23.296;2024-02-26T10:23:02;23.90;;;7.97;;
6850;SDS011;3464;42.728;23.296;2024-02-26T10:25:53;17.87;;;6.80;;
6850;SDS011;3464;42.728;23.296;2024-02-26T10:28:43;17.33;;;7.27;;
6850;SDS011;3464;42.728;23.296;2024-02-26T10:31:32;18.87;;;8.10;;
6850;SDS011;3464;42.728;23.296;2024-02-26T10:34:23;18.20;;;7.33;;
6850;SDS011;3464;42.728;23.296;2024-02-26T10:37:13;16.00;;;6.57;;
6850;SDS011;3464;42.728;23.296;2024-02-26T10:40:03;16.90;;;7.03;;
6850;SDS011;3464;42.728;23.296;2024-02-26T10:42:52;17.50;;;7.37;;
6850;SDS011;3464;42.728;23.296;2024-02-26T10:45:57;16.90;;;7.50;;
6850;SDS011;3464;42.728;23.296;2024-02-26T10:48:55;14.40;;;6.30;;
6850;SDS011;3464;42.728;23.296;2024-02-26T10:51:45;15.57;;;6.20;;
6850;SDS011;3464;42.728;23.296;2024-02-26T10:54:33;17.73;;;6.33;;
6850;SDS011;3464;42.728;23.296;2024-02-26T10:57:23;23.77;;;9.30;;
6850;SDS011;3464;42.728;23.296;2024-02-26T11:00:14;31.73;;;11.43;;
6850;SDS011;3464;42.728;23.296;2024-02-26T11:03:02;18.53;;;6.70;;
6850;SDS011;3464;42.728;23.296;2024-02-26T11:05:52;16.17;;;6.33;;
6850;SDS011;3464;42.728;23.296;2024-02-26T11:08:42;15.13;;;5.63;;
6850;SDS011;3464;42.728;23.296;2024-02-26T11:11:32;15.67;;;5.93;;
6850;SDS011;3464;42.728;23.296;2024-02-26T11:14:21;16.03;;;6.23;;
6850;SDS011;3464;42.728;23.296;2024-02-26T11:17:11;14.53;;;6.20;;
6850;SDS011;3464;42.728;23.296;2024-02-26T11:20:00;17.37;;;6.70;;
6850;SDS011;3464;42.728;23.296;2024-02-26T11:22:50;14.03;;;5.87;;
6850;SDS011;3464;42.728;23.296;2024-02-26T11:25:40;16.53;;;6.93;;
6850;SDS011;3464;42.728;23.296;2024-02-26T11:28:36;18.40;;;8.33;;
6850;SDS011;3464;42.728;23.296;2024-02-26T11:31:26;13.33;;;5.03;;
6850;SDS011;3464;42.728;23.296;2024-02-26T11:34:16;12.77;;;4.73;;
6850;SDS011;3464;42.728;23.296;2024-02-26T11:37:09;15.57;;;5.17;;
6850;SDS011;3464;42.728;23.296;2024-02-26T11:39:59;13.67;;;4.90;;
6850;SDS011;3464;42.728;23.296;2024-02-26T11:42:52;14.57;;;5.50;;
6850;SDS011;3464;42.728;23.296;2024-02-26T11:45:49;14.80;;;5.63;;
6850;SDS011;3464;42.728;23.296;2024-02-26T11:48:38;15.53;;;5.33;;
6850;SDS011;3464;42.728;23.296;2024-02-26T11:51:27;22.70;;;6.20;;
6850;SDS011;3464;42.728;23.296;2024-02-26T11:57:24;15.13;;;5.80;;
6850;SDS011;3464;42.728;23.296;2024-02-26T12:00:19;14.40;;;5.90;;
6850;SDS011;3464;42.728;23.296;2024-02-26T12:03:08;20.10;;;6.70;;
6850;SDS011;3464;42.728;23.296;2024-02-26T12:05:59;19.30;;;6.73;;
6850;SDS011;3464;42.728;23.296;2024-02-26T12:08:48;17.90;;;6.70;;
6850;SDS011;3464;42.728;23.296;2024-02-26T12:11:38;15.90;;;5.90;;
6850;SDS011;3464;42.728;23.296;2024-02-26T12:14:27;13.83;;;5.70;;
6850;SDS011;3464;42.728;23.296;2024-02-26T12:17:22;16.43;;;6.20;;
6850;SDS011;3464;42.728;23.296;2024-02-26T12:20:12;14.30;;;5.90;;
6850;SDS011;3464;42.728;23.296;2024-02-26T12:23:02;18.10;;;6.20;;
6850;SDS011;3464;42.728;23.296;2024-02-26T12:25:51;17.67;;;6.27;;
6850;SDS011;3464;42.728;23.296;2024-02-26T12:28:41;19.80;;;5.70;;
6850;SDS011;3464;42.728;23.296;2024-02-26T12:31:42;16.43;;;5.63;;
6850;SDS011;3464;42.728;23.296;2024-02-26T12:34:38;15.23;;;5.43;;
6850;SDS011;3464;42.728;23.296;2024-02-26T12:37:27;15.00;;;5.73;;
6850;SDS011;3464;42.728;23.296;2024-02-26T12:40:17;15.90;;;5.37;;
6850;SDS011;3464;42.728;23.296;2024-02-26T12:43:06;15.80;;;6.03;;
6850;SDS011;3464;42.728;23.296;2024-02-26T12:45:56;14.37;;;5.43;;
6850;SDS011;3464;42.728;23.296;2024-02-26T12:48:46;15.77;;;5.60;;
6850;SDS011;3464;42.728;23.296;2024-02-26T12:51:35;18.83;;;5.47;;
6850;SDS011;3464;42.728;23.296;2024-02-26T12:54:25;14.27;;;5.30;;
6850;SDS011;3464;42.728;23.296;2024-02-26T12:57:14;15.53;;;5.93;;
6850;SDS011;3464;42.728;23.296;2024-02-26T13:00:04;18.30;;;5.90;;
6850;SDS011;3464;42.728;23.296;2024-02-26T13:02:54;13.27;;;4.53;;
6850;SDS011;3464;42.728;23.296;2024-02-26T13:05:43;19.67;;;4.60;;
6850;SDS011;3464;42.728;23.296;2024-02-26T13:08:33;14.90;;;4.60;;
6850;SDS011;3464;42.728;23.296;2024-02-26T13:11:25;11.60;;;4.43;;
6850;SDS011;3464;42.728;23.296;2024-02-26T13:14:19;14.17;;;4.13;;
6850;SDS011;3464;42.728;23.296;2024-02-26T13:17:08;13.43;;;4.70;;
6850;SDS011;3464;42.728;23.296;2024-02-26T13:19:58;13.20;;;4.30;;
6850;SDS011;3464;42.728;23.296;2024-02-26T13:22:47;16.10;;;4.67;;
6850;SDS011;3464;42.728;23.296;2024-02-26T13:25:42;13.43;;;4.50;;
6850;SDS011;3464;42.728;23.296;2024-02-26T13:28:32;15.83;;;4.83;;
6850;SDS011;3464;42.728;23.296;2024-02-26T13:31:21;14.40;;;4.90;;
6850;SDS011;3464;42.728;23.296;2024-02-26T13:34:11;14.20;;;4.90;;
6850;SDS011;3464;42.728;23.296;2024-02-26T13:37:04;17.23;;;5.53;;
6850;SDS011;3464;42.728;23.296;2024-02-26T13:39:54;14.77;;;5.40;;
6850;SDS011;3464;42.728;23.296;2024-02-26T13:42:46;16.33;;;4.90;;
6850;SDS011;3464;42.728;23.296;2024-02-26T13:45:36;14.90;;;4.93;;
6850;SDS011;3464;42.728;23.296;2024-02-26T13:48:25;16.23;;;5.20;;
6850;SDS011;3464;42.728;23.296;2024-02-26T13:51:15;17.00;;;4.60;;
6850;SDS011;3464;42.728;23.296;2024-02-26T13:54:06;14.50;;;5.13;;
6850;SDS011;3464;42.728;23.296;2024-02-26T13:57:00;14.60;;;4.83;;
6850;SDS011;3464;42.728;23.296;2024-02-26T14:05:54;18.57;;;4.80;;
6850;SDS011;3464;42.728;23.296;2024-02-26T14:08:49;13.90;;;4.60;;
6850;SDS011;3464;42.728;23.296;2024-02-26T14:11:40;15.90;;;5.00;;
6850;SDS011;3464;42.728;23.296;2024-02-26T14:14:30;19.97;;;7.00;;
6850;SDS011;3464;42.728;23.296;2024-02-26T14:17:20;12.27;;;4.43;;
6850;SDS011;3464;42.728;23.296;2024-02-26T14:20:16;20.87;;;4.63;;
6850;SDS011;3464;42.728;23.296;2024-02-26T14:23:07;12.30;;;4.40;;
6850;SDS011;3464;42.728;23.296;2024-02-26T14:25:56;13.00;;;4.80;;
6850;SDS011;3464;42.728;23.296;2024-02-26T14:28:48;14.60;;;5.17;;
6850;SDS011;3464;42.728;23.296;2024-02-26T14:31:40;13.43;;;4.73;;
6850;SDS011;3464;42.728;23.296;2024-02-26T14:34:30;16.40;;;4.60;;
6850;SDS011;3464;42.728;23.296;2024-02-26T14:37:33;14.70;;;5.13;;
6850;SDS011;3464;42.728;23.296;2024-02-26T14:40:24;13.90;;;5.03;;
6850;SDS011;3464;42.728;23.296;2024-02-26T14:46:16;15.13;;;5.40;;
6850;SDS011;3464;42.728;23.296;2024-02-26T14:49:06;13.83;;;4.63;;
6850;SDS011;3464;42.728;23.296;2024-02-26T14:51:59;17.27;;;4.50;;
6850;SDS011;3464;42.728;23.296;2024-02-26T14:54:48;19.90;;;5.60;;
6850;SDS011;3464;42.728;23.296;2024-02-26T14:57:38;21.60;;;5.37;;
6850;SDS011;3464;42.728;23.296;2024-02-26T15:00:28;19.43;;;5.37;;
6850;SDS011;3464;42.728;23.296;2024-02-26T15:03:20;16.67;;;4.60;;
6850;SDS011;3464;42.728;23.296;2024-02-26T15:09:18;12.77;;;4.10;;
6850;SDS011;3464;42.728;23.296;2024-02-26T15:12:08;17.10;;;4.63;;
6850;SDS011;3464;42.728;23.296;2024-02-26T15:14:59;15.60;;;4.70;;
6850;SDS011;3464;42.728;23.296;2024-02-26T15:17:48;13.27;;;4.40;;
6850;SDS011;3464;42.728;23.296;2024-02-26T15:20:37;16.67;;;4.90;;
6850;SDS011;3464;42.728;23.296;2024-02-26T15:23:27;17.27;;;4.43;;
6850;SDS011;3464;42.728;23.296;2024-02-26T15:26:18;20.10;;;5.73;;
6850;SDS011;3464;42.728;23.296;2024-02-26T15:29:07;14.27;;;4.90;;
6850;SDS011;3464;42.728;23.296;2024-02-26T15:31:57;15.73;;;4.40;;
6850;SDS011;3464;42.728;23.296;2024-02-26T15:34:48;15.93;;;4.50;;
6850;SDS011;3464;42.728;23.296;2024-02-26T15:37:38;13.17;;;4.50;;
6850;SDS011;3464;42.728;23.296;2024-02-26T15:40:27;14.13;;;4.30;;
6850;SDS011;3464;42.728;23.296;2024-02-26T15:43:17;20.23;;;5.50;;
6850;SDS011;3464;42.728;23.296;2024-02-26T15:46:06;16.40;;;4.90;;
6850;SDS011;3464;42.728;23.296;2024-02-26T15:48:56;18.50;;;5.10;;
6850;SDS011;3464;42.728;23.296;2024-02-26T15:51:45;19.20;;;5.47;;
6850;SDS011;3464;42.728;23.296;2024-02-26T15:54:38;21.33;;;6.10;;
6850;SDS011;3464;42.728;23.296;2024-02-26T15:57:28;17.10;;;5.00;;
6850;SDS011;3464;42.728;23.296;2024-02-26T16:00:17;19.70;;;5.70;;
6850;SDS011;3464;42.728;23.296;2024-02-26T16:03:07;15.70;;;5.53;;
6850;SDS011;3464;42.728;23.296;2024-02-26T16:05:56;18.70;;;6.40;;
6850;SDS011;3464;42.728;23.296;2024-02-26T16:08:46;22.90;;;7.10;;
6850;SDS011;3464;42.728;23.296;2024-02-26T16:11:35;27.67;;;7.30;;
6850;SDS011;3464;42.728;23.296;2024-02-26T16:14:36;16.60;;;6.10;;
6850;SDS011;3464;42.728;23.296;2024-02-26T16:17:25;18.67;;;5.67;;
6850;SDS011;3464;42.728;23.296;2024-02-26T16:20:15;18.87;;;6.40;;
6850;SDS011;3464;42.728;23.296;2024-02-26T16:23:04;25.80;;;6.80;;
6850;SDS011;3464;42.728;23.296;2024-02-26T16:25:53;21.73;;;5.60;;
6850;SDS011;3464;42.728;23.296;2024-02-26T16:28:43;19.70;;;5.73;;
6850;SDS011;3464;42.728;23.296;2024-02-26T16:31:33;15.33;;;5.10;;
6850;SDS011;3464;42.728;23.296;2024-02-26T16:34:22;19.93;;;5.57;;
6850;SDS011;3464;42.728;23.296;2024-02-26T16:37:12;18.87;;;6.23;;
6850;SDS011;3464;42.728;23.296;2024-02-26T16:40:02;22.00;;;8.13;;
6850;SDS011;3464;42.728;23.296;2024-02-26T16:42:51;20.67;;;6.40;;
6850;SDS011;3464;42.728;23.296;2024-02-26T16:45:40;15.37;;;5.83;;
6850;SDS011;3464;42.728;23.296;2024-02-26T16:48:34;19.23;;;6.33;;
6850;SDS011;3464;42.728;23.296;2024-02-26T16:51:23;21.00;;;5.77;;
6850;SDS011;3464;42.728;23.296;2024-02-26T16:54:13;17.17;;;5.53;;
6850;SDS011;3464;42.728;23.296;2024-02-26T16:57:02;20.57;;;7.13;;
6850;SDS011;3464;42.728;23.296;2024-02-26T16:59:52;22.33;;;5.80;;
6850;SDS011;3464;42.728;23.296;2024-02-26T17:02:42;19.93;;;5.63;;
6850;SDS011;3464;42.728;23.296;2024-02-26T17:05:31;18.93;;;6.00;;
6850;SDS011;3464;42.728;23.296;2024-02-26T17:08:21;14.57;;;5.27;;
6850;SDS011;3464;42.728;23.296;2024-02-26T17:11:10;22.70;;;5.77;;